createdAt,value
2018-11-03T00:01:11.778Z,1.77
2018-11-03T00:03:39.076Z,2.03
2018-11-03T00:06:06.339Z,2.10
2018-11-03T00:08:33.568Z,1.87
2018-11-03T00:11:00.924Z,1.90
2018-11-03T00:13:28.198Z,2.07
2018-11-03T00:15:55.475Z,2.20
2018-11-03T00:18:22.811Z,1.93
2018-11-03T00:20:50.061Z,1.83
2018-11-03T00:23:17.317Z,2.13
2018-11-03T00:25:44.596Z,1.77
2018-11-03T00:28:11.828Z,1.50
2018-11-03T00:30:39.076Z,2.07
2018-11-03T00:33:06.430Z,2.00
2018-11-03T00:35:33.732Z,1.90
2018-11-03T00:38:00.973Z,2.03
2018-11-03T00:40:28.358Z,1.83
2018-11-03T00:42:55.675Z,1.57
2018-11-03T00:45:22.851Z,2.10
2018-11-03T00:47:50.231Z,2.33
2018-11-03T00:50:17.487Z,1.80
2018-11-03T00:52:44.723Z,2.20
2018-11-03T00:55:12.810Z,2.33
2018-11-03T00:57:40.661Z,2.40
2018-11-03T01:00:11.052Z,1.87
2018-11-03T01:02:39.103Z,2.23
2018-11-03T01:05:06.924Z,2.33
2018-11-03T01:07:34.600Z,1.70
2018-11-03T01:10:01.962Z,2.00
2018-11-03T01:12:29.198Z,1.80
2018-11-03T01:14:56.437Z,2.20
2018-11-03T01:17:23.708Z,1.70
2018-11-03T01:19:50.991Z,2.17
2018-11-03T01:22:18.228Z,1.80
2018-11-03T01:24:45.583Z,2.43
2018-11-03T01:27:12.894Z,1.93
2018-11-03T01:29:40.132Z,1.80
2018-11-03T01:32:07.567Z,2.23
2018-11-03T01:34:34.808Z,1.90
2018-11-03T01:37:02.079Z,2.17
2018-11-03T01:39:29.406Z,1.93
2018-11-03T01:41:56.665Z,2.40
2018-11-03T01:44:23.897Z,1.83
2018-11-03T01:46:51.252Z,2.20
2018-11-03T01:49:18.507Z,1.70
2018-11-03T01:51:45.766Z,2.13
2018-11-03T01:54:13.112Z,2.07
2018-11-03T01:56:40.388Z,2.60
2018-11-03T01:59:07.668Z,2.10
2018-11-03T02:01:35.020Z,2.10
2018-11-03T02:04:02.272Z,1.97
2018-11-03T02:06:29.550Z,2.27
2018-11-03T02:08:56.907Z,2.00
2018-11-03T02:11:24.155Z,2.20
2018-11-03T02:13:51.505Z,2.70
2018-11-03T02:16:18.973Z,1.93
2018-11-03T02:18:46.200Z,2.00
2018-11-03T02:21:13.434Z,2.20
2018-11-03T02:23:40.824Z,1.90
2018-11-03T02:26:08.083Z,1.90
2018-11-03T02:28:35.313Z,2.60
2018-11-03T02:31:02.687Z,2.10
2018-11-03T02:33:29.937Z,2.73
2018-11-03T02:35:57.195Z,2.70
2018-11-03T02:38:24.674Z,2.10
2018-11-03T02:40:51.908Z,2.10
2018-11-03T02:43:19.151Z,2.10
2018-11-03T02:45:46.527Z,2.27
2018-11-03T02:48:13.779Z,2.53
2018-11-03T02:50:41.046Z,2.10
2018-11-03T02:53:08.420Z,2.47
2018-11-03T02:55:35.679Z,1.93
2018-11-03T02:58:02.930Z,2.07
2018-11-03T03:00:30.205Z,2.00
2018-11-03T03:02:57.437Z,2.20
2018-11-03T03:05:24.676Z,2.40
2018-11-03T03:07:51.976Z,2.03
2018-11-03T03:10:19.257Z,2.67
2018-11-03T03:12:46.518Z,2.77
2018-11-03T03:15:13.875Z,2.23
2018-11-03T03:17:41.459Z,2.50
2018-11-03T03:20:10.129Z,2.13
2018-11-03T03:22:37.482Z,2.33
2018-11-03T03:25:05.475Z,1.93
2018-11-03T03:27:32.803Z,2.53
2018-11-03T03:30:00.150Z,2.00
2018-11-03T03:32:27.420Z,2.13
2018-11-03T03:34:54.671Z,2.20
2018-11-03T03:37:22.027Z,2.77
2018-11-03T03:39:49.259Z,1.97
2018-11-03T03:42:16.492Z,2.07
2018-11-03T03:44:43.799Z,2.53
2018-11-03T03:47:11.056Z,2.43
2018-11-03T03:49:38.305Z,2.50
2018-11-03T03:52:05.686Z,2.40
2018-11-03T03:54:32.952Z,2.90
2018-11-03T03:57:00.204Z,2.53
2018-11-03T03:59:27.469Z,2.87
2018-11-03T04:01:54.799Z,2.57
2018-11-03T04:04:22.072Z,2.60
2018-11-03T04:06:49.447Z,2.97
2018-11-03T04:09:16.683Z,3.70
2018-11-03T04:11:43.910Z,2.87
2018-11-03T04:14:11.270Z,3.10
2018-11-03T04:16:38.516Z,2.77
2018-11-03T04:19:05.782Z,2.70
2018-11-03T04:21:33.124Z,3.10
2018-11-03T04:24:00.372Z,2.67
2018-11-03T04:26:34.732Z,3.83
2018-11-03T04:29:01.997Z,3.53
2018-11-03T04:31:29.261Z,2.83
2018-11-03T04:33:56.980Z,2.90
2018-11-03T04:36:24.239Z,2.70
2018-11-03T04:38:51.478Z,2.80
2018-11-03T04:41:18.937Z,2.80
2018-11-03T04:43:46.221Z,3.20
2018-11-03T04:46:13.484Z,2.73
2018-11-03T04:48:40.866Z,2.93
2018-11-03T04:51:08.410Z,2.83
2018-11-03T04:53:35.663Z,3.20
2018-11-03T04:56:03.047Z,2.57
2018-11-03T04:58:30.402Z,3.10
2018-11-03T05:00:57.652Z,3.13
2018-11-03T05:03:25.191Z,3.40
2018-11-03T05:05:52.416Z,2.90
2018-11-03T05:08:19.935Z,3.07
2018-11-03T05:10:47.236Z,2.80
2018-11-03T05:13:14.505Z,3.33
2018-11-03T05:15:41.754Z,3.30
2018-11-03T05:18:09.030Z,2.80
2018-11-03T05:20:36.296Z,3.43
2018-11-03T05:23:03.806Z,3.30
2018-11-03T05:25:31.183Z,4.00
2018-11-03T05:27:58.466Z,2.70
2018-11-03T05:30:25.761Z,2.77
2018-11-03T05:32:53.148Z,3.10
2018-11-03T05:35:20.453Z,2.67
2018-11-03T05:37:47.732Z,3.07
2018-11-03T05:40:15.083Z,3.30
2018-11-03T05:42:42.402Z,2.80
2018-11-03T05:45:09.645Z,3.17
2018-11-03T05:47:36.924Z,3.23
2018-11-03T05:50:05.903Z,3.27
2018-11-03T05:52:33.159Z,3.70
2018-11-03T05:55:00.530Z,3.40
2018-11-03T05:57:27.776Z,3.53
2018-11-03T05:59:55.040Z,3.33
2018-11-03T06:02:22.800Z,3.77
2018-11-03T06:04:50.144Z,3.63
2018-11-03T06:07:17.321Z,3.53
2018-11-03T06:09:44.674Z,3.80
2018-11-03T06:12:11.932Z,4.40
2018-11-03T06:14:39.236Z,3.67
2018-11-03T06:17:06.546Z,3.83
2018-11-03T06:19:33.771Z,3.43
2018-11-03T06:22:01.576Z,3.40
2018-11-03T06:24:28.875Z,3.90
2018-11-03T06:26:56.165Z,3.87
2018-11-03T06:29:23.419Z,3.63
2018-11-03T06:31:50.735Z,4.63
2018-11-03T06:34:18.077Z,4.17
2018-11-03T06:36:45.335Z,4.20
2018-11-03T06:39:12.729Z,3.97
2018-11-03T06:41:39.962Z,3.97
2018-11-03T06:44:07.242Z,3.97
2018-11-03T06:46:34.724Z,4.60
2018-11-03T06:49:07.673Z,3.73
2018-11-03T06:51:34.979Z,3.77
2018-11-03T06:54:03.092Z,4.03
2018-11-03T06:56:30.977Z,3.93
2018-11-03T06:58:58.327Z,3.83
2018-11-03T07:01:25.602Z,3.67
2018-11-03T07:03:52.836Z,3.93
2018-11-03T07:06:20.487Z,3.97
2018-11-03T07:08:47.752Z,3.43
2018-11-03T07:11:15.038Z,3.93
2018-11-03T07:13:42.444Z,3.90
2018-11-03T07:16:09.690Z,3.57
2018-11-03T07:18:36.951Z,3.87
2018-11-03T07:21:04.614Z,3.67
2018-11-03T07:23:31.945Z,4.63
2018-11-03T07:25:59.197Z,3.70
2018-11-03T07:28:26.585Z,4.70
2018-11-03T07:30:53.860Z,4.47
2018-11-03T07:33:21.140Z,4.07
2018-11-03T07:35:48.568Z,3.47
2018-11-03T07:38:15.870Z,3.73
2018-11-03T07:40:43.221Z,3.67
2018-11-03T07:43:10.576Z,3.67
2018-11-03T07:45:37.904Z,3.50
2018-11-03T07:48:05.284Z,3.20
2018-11-03T07:50:32.609Z,3.23
2018-11-03T07:52:59.899Z,3.17
2018-11-03T07:55:27.180Z,3.23
2018-11-03T07:57:54.483Z,3.23
2018-11-03T08:00:21.940Z,2.60
2018-11-03T08:02:49.151Z,3.73
2018-11-03T08:05:16.560Z,2.83
2018-11-03T08:07:43.827Z,2.93
2018-11-03T08:10:11.600Z,2.60
2018-11-03T08:12:39.005Z,2.63
2018-11-03T08:15:07.158Z,2.60
2018-11-03T08:17:34.449Z,2.37
2018-11-03T08:20:01.880Z,2.43
2018-11-03T08:22:29.188Z,2.37
2018-11-03T08:24:56.467Z,2.40
2018-11-03T08:27:23.771Z,2.63
2018-11-03T08:29:51.035Z,2.13
2018-11-03T08:32:18.353Z,2.30
2018-11-03T08:34:45.812Z,2.73
2018-11-03T08:37:13.168Z,2.47
2018-11-03T08:39:40.537Z,2.07
2018-11-03T08:42:07.836Z,2.37
2018-11-03T08:44:35.172Z,2.20
2018-11-03T08:47:02.351Z,2.20
2018-11-03T08:49:29.806Z,1.83
2018-11-03T08:51:57.082Z,1.80
2018-11-03T08:54:24.446Z,1.90
2018-11-03T08:56:51.912Z,2.07
2018-11-03T08:59:19.190Z,1.97
2018-11-03T09:01:46.504Z,1.40
2018-11-03T09:04:13.967Z,2.03
2018-11-03T09:06:41.252Z,2.97
2018-11-03T09:09:08.527Z,1.83
2018-11-03T09:11:35.895Z,1.80
2018-11-03T09:14:03.294Z,3.23
2018-11-03T09:16:30.552Z,1.70
2018-11-03T09:18:57.940Z,1.77
2018-11-03T09:21:25.195Z,2.27
2018-11-03T09:23:52.478Z,1.40
2018-11-03T09:26:19.860Z,2.17
2018-11-03T09:28:47.152Z,2.23
2018-11-03T09:31:14.443Z,1.73
2018-11-03T09:33:42.081Z,1.30
2018-11-03T09:36:09.364Z,1.53
2018-11-03T09:38:36.712Z,1.57
2018-11-03T09:41:04.147Z,1.60
2018-11-03T09:43:31.562Z,1.47
2018-11-03T09:45:58.782Z,1.40
2018-11-03T09:48:26.146Z,2.30
2018-11-03T09:50:53.478Z,1.57
2018-11-03T09:53:20.827Z,1.30
2018-11-03T09:55:48.225Z,1.83
2018-11-03T09:58:15.519Z,1.40
2018-11-03T10:00:42.842Z,1.63
2018-11-03T10:03:10.289Z,1.87
2018-11-03T10:05:37.706Z,1.60
2018-11-03T10:08:05.065Z,2.13
2018-11-03T10:10:32.478Z,2.37
2018-11-03T10:12:59.762Z,1.97
2018-11-03T10:15:27.106Z,1.63
2018-11-03T10:17:54.463Z,1.93
2018-11-03T10:20:21.770Z,1.53
2018-11-03T10:22:49.192Z,2.10
2018-11-03T10:25:17.888Z,1.70
2018-11-03T10:27:45.676Z,1.70
2018-11-03T10:30:14.012Z,1.50
2018-11-03T10:32:41.913Z,1.57
2018-11-03T10:35:10.211Z,1.30
2018-11-03T10:37:37.799Z,1.73
2018-11-03T10:40:07.504Z,1.20
2018-11-03T10:42:35.040Z,2.30
2018-11-03T10:45:02.451Z,1.67
2018-11-03T10:47:29.904Z,1.50
2018-11-03T10:49:57.196Z,1.40
2018-11-03T10:52:24.494Z,1.50
2018-11-03T10:54:51.913Z,1.70
2018-11-03T10:57:19.272Z,1.80
2018-11-03T10:59:46.584Z,1.73
2018-11-03T11:02:19.779Z,1.57
2018-11-03T11:04:52.729Z,1.60
2018-11-03T11:07:25.774Z,1.40
2018-11-03T11:09:58.668Z,1.37
2018-11-03T11:12:31.779Z,1.67
2018-11-03T11:14:59.121Z,1.40
2018-11-03T11:17:26.400Z,1.33
2018-11-03T11:19:53.807Z,1.33
2018-11-03T11:22:21.099Z,1.40
2018-11-03T11:24:48.439Z,1.60
2018-11-03T11:27:15.905Z,2.37
2018-11-03T11:29:43.247Z,1.40
2018-11-03T11:32:10.590Z,1.43
2018-11-03T11:34:38.036Z,1.60
2018-11-03T11:37:05.381Z,1.60
2018-11-03T11:39:32.763Z,1.50
2018-11-03T11:42:00.129Z,2.10
2018-11-03T11:44:27.396Z,1.30
2018-11-03T11:46:54.700Z,1.60
2018-11-03T11:49:22.124Z,1.37
2018-11-03T11:51:49.392Z,1.73
2018-11-03T11:54:16.663Z,0.93
2018-11-03T11:56:44.084Z,1.23
2018-11-03T11:59:11.376Z,1.40
2018-11-03T12:01:38.759Z,2.43
2018-11-03T12:04:06.213Z,1.13
2018-11-03T12:06:33.508Z,1.63
2018-11-03T12:09:00.806Z,1.17
2018-11-03T12:11:28.260Z,1.47
2018-11-03T12:13:55.601Z,1.40
2018-11-03T12:16:22.909Z,1.20
2018-11-03T12:18:50.308Z,1.40
2018-11-03T12:21:17.622Z,1.20
2018-11-03T12:23:44.913Z,1.97
2018-11-03T12:26:12.335Z,1.23
2018-11-03T12:28:39.676Z,1.10
2018-11-03T12:31:06.969Z,1.43
2018-11-03T12:33:34.363Z,1.20
2018-11-03T12:36:01.689Z,1.07
2018-11-03T12:38:28.991Z,2.10
2018-11-03T12:40:56.445Z,1.10
2018-11-03T12:43:23.665Z,1.10
2018-11-03T12:45:50.934Z,1.03
2018-11-03T12:48:18.490Z,1.17
2018-11-03T12:50:45.697Z,0.87
2018-11-03T12:53:12.963Z,1.17
2018-11-03T12:55:40.540Z,1.37
2018-11-03T12:58:07.905Z,1.10
2018-11-03T13:00:35.198Z,1.50
2018-11-03T13:03:02.604Z,1.00
2018-11-03T13:05:29.978Z,1.10
2018-11-03T13:07:57.303Z,1.20
2018-11-03T13:10:24.950Z,1.20
2018-11-03T13:12:52.239Z,1.97
2018-11-03T13:15:19.594Z,1.40
2018-11-03T13:17:46.929Z,1.10
2018-11-03T13:20:14.439Z,1.03
2018-11-03T13:22:42.504Z,1.27
2018-11-03T13:25:10.619Z,1.30
2018-11-03T13:27:38.266Z,1.60
2018-11-03T13:30:07.160Z,1.07
2018-11-03T13:32:34.579Z,1.03
2018-11-03T13:35:02.039Z,1.00
2018-11-03T13:37:29.323Z,0.93
2018-11-03T13:39:56.703Z,0.83
2018-11-03T13:42:24.008Z,1.53
2018-11-03T13:44:51.269Z,1.00
2018-11-03T13:47:18.727Z,1.00
2018-11-03T13:49:45.904Z,0.80
2018-11-03T13:52:13.202Z,0.70
2018-11-03T13:54:40.511Z,0.90
2018-11-03T13:57:07.905Z,0.90
2018-11-03T13:59:35.075Z,1.10
2018-11-03T14:02:02.661Z,0.70
2018-11-03T14:04:29.989Z,0.87
2018-11-03T14:06:57.279Z,0.70
2018-11-03T14:09:24.706Z,0.70
2018-11-03T14:11:51.971Z,1.30
2018-11-03T14:14:26.003Z,1.10
2018-11-03T14:16:53.289Z,0.73
2018-11-03T14:19:21.390Z,0.87
2018-11-03T14:21:48.778Z,0.70
2018-11-03T14:24:16.021Z,0.90
2018-11-03T14:26:43.299Z,0.80
2018-11-03T14:29:10.802Z,0.70
2018-11-03T14:31:38.071Z,0.90
2018-11-03T14:34:05.493Z,1.07
2018-11-03T14:36:32.876Z,1.40
2018-11-03T14:39:00.130Z,0.97
2018-11-03T14:41:27.392Z,1.00
2018-11-03T14:43:54.760Z,0.97
2018-11-03T14:46:23.004Z,0.80
2018-11-03T14:48:50.305Z,0.83
2018-11-03T14:51:17.691Z,1.00
2018-11-03T14:53:44.960Z,0.90
2018-11-03T14:56:12.240Z,1.00
2018-11-03T14:58:39.653Z,0.93
2018-11-03T15:01:06.960Z,1.37
2018-11-03T15:03:34.227Z,1.13
2018-11-03T15:06:01.617Z,1.53
2018-11-03T15:08:28.985Z,1.47
2018-11-03T15:10:56.244Z,2.00
2018-11-03T15:13:23.674Z,1.90
2018-11-03T15:15:50.929Z,1.50
2018-11-03T15:18:18.200Z,1.40
2018-11-03T15:20:45.577Z,1.17
2018-11-03T15:23:12.909Z,1.03
2018-11-03T15:25:40.170Z,0.80
2018-11-03T15:28:07.565Z,1.30
2018-11-03T15:30:34.840Z,1.73
2018-11-03T15:33:02.153Z,2.93
2018-11-03T15:35:29.461Z,2.10
2018-11-03T15:37:56.699Z,2.53
2018-11-03T15:40:24.039Z,2.50
2018-11-03T15:42:51.387Z,2.53
2018-11-03T15:45:18.643Z,2.60
2018-11-03T15:47:46.616Z,2.23
2018-11-03T15:50:14.736Z,2.63
2018-11-03T15:52:42.463Z,2.47
2018-11-03T15:55:09.735Z,2.60
2018-11-03T15:57:37.075Z,2.63
2018-11-03T16:00:07.724Z,2.53
2018-11-03T16:02:34.977Z,2.37
2018-11-03T16:05:02.351Z,3.20
2018-11-03T16:07:29.616Z,2.50
2018-11-03T16:09:56.866Z,2.63
2018-11-03T16:12:24.357Z,2.23
2018-11-03T16:14:51.614Z,2.30
2018-11-03T16:17:18.877Z,2.90
2018-11-03T16:19:46.295Z,2.40
2018-11-03T16:22:13.542Z,2.63
2018-11-03T16:24:40.813Z,2.53
2018-11-03T16:27:08.217Z,2.57
2018-11-03T16:29:35.460Z,2.47
2018-11-03T16:32:02.789Z,3.23
2018-11-03T16:34:30.836Z,2.97
2018-11-03T16:36:58.220Z,2.77
2018-11-03T16:39:26.164Z,3.40
2018-11-03T16:41:53.536Z,2.87
2018-11-03T16:44:20.795Z,3.13
2018-11-03T16:46:48.112Z,3.20
2018-11-03T16:49:18.743Z,2.80
2018-11-03T16:51:46.000Z,3.17
2018-11-03T16:54:13.363Z,3.67
2018-11-03T16:56:41.436Z,4.03
2018-11-03T16:59:08.792Z,4.17
2018-11-03T17:01:36.039Z,5.27
2018-11-03T17:04:03.750Z,5.00
2018-11-03T17:06:31.000Z,5.73
2018-11-03T17:08:58.264Z,6.07
2018-11-03T17:11:25.697Z,5.93
2018-11-03T17:13:52.952Z,6.80
2018-11-03T17:16:20.217Z,6.80
2018-11-03T17:18:47.689Z,7.47
2018-11-03T17:21:14.919Z,7.60
2018-11-03T17:23:42.179Z,8.13
2018-11-03T17:26:09.527Z,8.90
2018-11-03T17:28:36.756Z,9.27
2018-11-03T17:31:04.443Z,8.50
2018-11-03T17:33:31.851Z,7.47
2018-11-03T17:35:59.123Z,8.13
2018-11-03T17:38:26.372Z,8.37
2018-11-03T17:40:53.764Z,8.20
2018-11-03T17:43:21.022Z,8.33
2018-11-03T17:45:55.031Z,8.17
2018-11-03T17:48:22.266Z,8.03
2018-11-03T17:50:49.491Z,7.60
2018-11-03T17:53:16.836Z,7.03
2018-11-03T17:55:44.079Z,7.77
2018-11-03T17:58:11.334Z,7.73
2018-11-03T18:00:38.818Z,7.60
2018-11-03T18:03:05.959Z,7.80
2018-11-03T18:05:33.271Z,7.37
2018-11-03T18:08:00.631Z,7.87
2018-11-03T18:10:27.955Z,7.80
2018-11-03T18:12:55.252Z,8.93
2018-11-03T18:15:22.697Z,8.60
2018-11-03T18:17:49.929Z,9.03
2018-11-03T18:20:17.208Z,8.63
2018-11-03T18:22:44.555Z,8.77
2018-11-03T18:25:11.797Z,8.80
2018-11-03T18:27:39.094Z,9.13
2018-11-03T18:30:08.121Z,11.30
2018-11-03T18:32:35.387Z,10.33
2018-11-03T18:35:02.670Z,10.07
2018-11-03T18:37:30.100Z,9.73
2018-11-03T18:39:57.384Z,10.50
2018-11-03T18:42:24.648Z,10.60
2018-11-03T18:44:52.024Z,10.63
2018-11-03T18:47:20.462Z,9.77
2018-11-03T18:49:48.207Z,9.73
2018-11-03T18:52:16.646Z,9.93
2018-11-03T18:54:47.546Z,8.20
2018-11-03T18:57:14.827Z,8.17
2018-11-03T18:59:42.355Z,8.60
2018-11-03T19:02:09.712Z,8.90
2018-11-03T19:04:36.976Z,8.70
2018-11-03T19:07:04.636Z,9.97
2018-11-03T19:09:31.903Z,10.77
2018-11-03T19:11:59.148Z,10.97
2018-11-03T19:14:26.621Z,10.17
2018-11-03T19:16:53.904Z,11.17
2018-11-03T19:19:21.175Z,11.47
2018-11-03T19:21:48.563Z,11.97
2018-11-03T19:24:15.948Z,11.80
2018-11-03T19:26:43.091Z,12.10
2018-11-03T19:29:10.478Z,12.27
2018-11-03T19:31:37.748Z,12.33
2018-11-03T19:34:05.041Z,13.63
2018-11-03T19:36:32.431Z,12.67
2018-11-03T19:38:59.667Z,15.90
2018-11-03T19:41:26.905Z,16.30
2018-11-03T19:43:54.313Z,16.33
2018-11-03T19:46:21.553Z,16.53
2018-11-03T19:48:48.852Z,15.63
2018-11-03T19:51:16.269Z,17.17
2018-11-03T19:53:43.555Z,17.23
2018-11-03T19:56:10.828Z,18.30
2018-11-03T19:58:38.210Z,18.73
2018-11-03T20:01:05.552Z,17.83
2018-11-03T20:03:32.876Z,15.27
2018-11-03T20:06:00.221Z,15.87
2018-11-03T20:08:27.524Z,17.07
2018-11-03T20:10:54.817Z,18.57
2018-11-03T20:13:22.178Z,19.33
2018-11-03T20:15:49.419Z,19.00
2018-11-03T20:18:16.689Z,18.33
2018-11-03T20:20:44.110Z,18.23
2018-11-03T20:23:11.355Z,18.63
2018-11-03T20:25:38.602Z,17.50
2018-11-03T20:28:05.935Z,17.77
2018-11-03T20:30:33.179Z,17.20
2018-11-03T20:33:00.479Z,17.60
2018-11-03T20:35:27.854Z,18.50
2018-11-03T20:37:55.119Z,20.10
2018-11-03T20:40:22.412Z,21.97
2018-11-03T20:42:49.778Z,23.57
2018-11-03T20:45:17.066Z,23.77
2018-11-03T20:47:44.375Z,23.17
2018-11-03T20:50:12.979Z,22.53
2018-11-03T20:52:40.307Z,19.07
2018-11-03T20:55:08.156Z,21.40
2018-11-03T20:57:35.503Z,22.50
2018-11-03T21:00:03.759Z,21.90
2018-11-03T21:02:32.133Z,23.70
2018-11-03T21:04:59.500Z,21.97
2018-11-03T21:07:26.822Z,25.23
2018-11-03T21:09:54.134Z,25.47
2018-11-03T21:12:21.517Z,30.73
2018-11-03T21:14:48.817Z,30.53
2018-11-03T21:17:16.103Z,28.53
2018-11-03T21:19:43.474Z,28.10
2018-11-03T21:22:12.133Z,30.10
2018-11-03T21:24:39.480Z,26.30
2018-11-03T21:27:08.522Z,27.83
2018-11-03T21:29:35.798Z,25.27
2018-11-03T21:32:03.289Z,27.23
2018-11-03T21:34:30.515Z,25.30
2018-11-03T21:36:57.785Z,25.30
2018-11-03T21:39:25.034Z,24.57
2018-11-03T21:41:52.406Z,25.17
2018-11-03T21:44:19.663Z,27.07
2018-11-03T21:46:47.052Z,26.63
2018-11-03T21:49:14.360Z,29.97
2018-11-03T21:51:41.658Z,31.93
2018-11-03T21:54:08.938Z,33.83
2018-11-03T21:56:36.290Z,34.33
2018-11-03T21:59:03.613Z,32.63
2018-11-03T22:01:30.948Z,34.70
2018-11-03T22:03:58.332Z,31.93
2018-11-03T22:06:25.642Z,30.93
2018-11-03T22:08:52.889Z,26.70
2018-11-03T22:11:20.271Z,26.07
2018-11-03T22:13:47.557Z,24.40
2018-11-03T22:16:14.841Z,23.67
2018-11-03T22:18:42.245Z,23.63
2018-11-03T22:21:09.524Z,23.60
2018-11-03T22:23:36.858Z,22.37
2018-11-03T22:26:04.509Z,24.23
2018-11-03T22:28:31.803Z,19.33
2018-11-03T22:30:59.109Z,20.17
2018-11-03T22:33:26.526Z,18.37
2018-11-03T22:35:53.778Z,18.83
2018-11-03T22:38:21.103Z,19.53
2018-11-03T22:40:48.546Z,18.97
2018-11-03T22:43:15.848Z,20.63
2018-11-03T22:45:43.131Z,19.57
2018-11-03T22:48:10.554Z,20.70
2018-11-03T22:50:37.821Z,22.03
2018-11-03T22:53:05.176Z,23.63
2018-11-03T22:55:32.603Z,25.27
2018-11-03T22:57:59.856Z,24.57
2018-11-03T23:00:27.143Z,23.03
2018-11-03T23:02:54.566Z,22.20
2018-11-03T23:05:21.827Z,22.07
2018-11-03T23:07:49.091Z,20.20
2018-11-03T23:10:16.573Z,19.97
2018-11-03T23:12:43.869Z,20.63
2018-11-03T23:15:11.166Z,22.07
2018-11-03T23:17:38.544Z,23.07
2018-11-03T23:20:08.788Z,22.57
2018-11-03T23:22:36.044Z,23.00
2018-11-03T23:25:03.424Z,22.17
2018-11-03T23:27:30.683Z,22.03
2018-11-03T23:29:58.089Z,23.37
2018-11-03T23:32:25.380Z,22.23
2018-11-03T23:34:52.623Z,20.70
2018-11-03T23:37:19.861Z,21.10
2018-11-03T23:39:47.351Z,19.23
2018-11-03T23:42:14.628Z,19.83
2018-11-03T23:44:41.916Z,18.70
2018-11-03T23:47:09.254Z,17.83
2018-11-03T23:49:36.511Z,17.90
2018-11-03T23:52:03.827Z,17.10
2018-11-03T23:54:31.180Z,15.50
2018-11-03T23:56:58.431Z,14.73
2018-11-03T23:59:25.780Z,14.97
